Aérodrome :
LOGIN :

S'inscrire | Disclaimer

   EN    FR    IT 

 










Légende :    VFR   VFR Marginal   IFR   IFR Intensif   IFR Très Intensif
Visi : 
Plafond : 
>= 8 km
>= 3000ft
5 à 8 km
1000 à 3000 ft
1500m à 5 km
500 à 1000 ft
800 à 1500m
200 à 500 ft
< 800m
< 200 ft
Symboles :   Orages  Brouillard  Fortes neiges  Fortes précipitations  Vent > 20 kt
SIGMETs :   Divers  Orages  Givrage  Turbulence  Onde Orograph.  Cendres Volcan.







- Altitude de l'aérodrome : 308 ft
- Code IATA : POZ


EPPO - Poznan-Lawica

DERNIER METAR :
  • 201900Z 29005KT 9999 BKN013 02/02 Q1012

METARs EXPIRÉS :
  • 201830Z 29005KT 9999 BKN018 BKN048 02/02 Q1012
  • 201800Z 26006KT 9999 FEW022 SCT040 02/02 Q1012
  • 201730Z 28005KT 9999 FEW016 BKN041 02/01 Q1012
  • 201700Z 28006KT 9999 FEW005 BKN026 03/02 Q1012
  • 201630Z 29007KT 9999 -RA BKN007 03/03 Q1012

TAF TAF EPPO
Valide du 20 à 18h jusqu'au 21 à 18h UTC


201730Z 2018/2118 28010KT 9999 SCT005 BKN015
PROB40
TEMPO 2018/2020 28015G25KT 4000 -SHSNRA BKN005 BKN010CB
BECMG 2020/2022 VRB03KT 4000 BR BKN008
PROB40 2021/2107 1200 DZ BR BKN003
BECMG 2107/2110 7000 SCT010
Pas de NOTAMs connus pour ce terrain.



MET'MAP, la Météo Aéronautique d'un coup d'oeil ! - Copyright ORBIFLY Décembre 2007 - Disclaimer

ORBIFLY MET'MAP TEAM :

Programmation & Développement : Alexandra Zaïnal
Conception & Développement : Baudouin d'Aumeries
Co-Programmation & Développement : Marc-Olivier Méhu
Soutien technique & logistique : Manuel Goepfert

Contact : metmap@orbifly.com




SOURCES & CREDITS :

   NOAA